sensor_id;sensor_type;location;lat;lon;timestamp;temperature;humidity
10722;DHT22;5412;59.450;18.124;2023-05-10T00:01:51;10.90;99.90
10722;DHT22;5412;59.450;18.124;2023-05-10T00:04:17;10.90;99.90
10722;DHT22;5412;59.450;18.124;2023-05-10T00:06:43;10.90;99.90
10722;DHT22;5412;59.450;18.124;2023-05-10T00:09:08;10.90;99.90
10722;DHT22;5412;59.450;18.124;2023-05-10T00:11:34;10.90;99.90
10722;DHT22;5412;59.450;18.124;2023-05-10T00:14:00;10.80;99.90
10722;DHT22;5412;59.450;18.124;2023-05-10T00:16:25;10.80;99.90
10722;DHT22;5412;59.450;18.124;2023-05-10T00:18:51;10.80;99.90
10722;DHT22;5412;59.450;18.124;2023-05-10T00:21:17;10.80;99.90
10722;DHT22;5412;59.450;18.124;2023-05-10T00:23:43;10.80;99.90
10722;DHT22;5412;59.450;18.124;2023-05-10T00:26:08;10.60;99.90
10722;DHT22;5412;59.450;18.124;2023-05-10T00:28:34;10.60;99.90
10722;DHT22;5412;59.450;18.124;2023-05-10T00:31:00;10.50;99.90
10722;DHT22;5412;59.450;18.124;2023-05-10T00:33:25;10.50;99.90
10722;DHT22;5412;59.450;18.124;2023-05-10T00:35:51;10.40;99.90
10722;DHT22;5412;59.450;18.124;2023-05-10T00:38:17;10.50;99.90
10722;DHT22;5412;59.450;18.124;2023-05-10T00:40:43;10.50;99.90
10722;DHT22;5412;59.450;18.124;2023-05-10T00:43:09;10.50;99.90
10722;DHT22;5412;59.450;18.124;2023-05-10T00:45:36;10.50;99.90
10722;DHT22;5412;59.450;18.124;2023-05-10T00:48:03;10.50;99.90
10722;DHT22;5412;59.450;18.124;2023-05-10T00:50:30;10.50;99.90
10722;DHT22;5412;59.450;18.124;2023-05-10T00:52:57;10.50;99.90
10722;DHT22;5412;59.450;18.124;2023-05-10T00:55:23;10.40;99.90
10722;DHT22;5412;59.450;18.124;2023-05-10T00:57:49;10.40;99.90
10722;DHT22;5412;59.450;18.124;2023-05-10T01:00:15;10.40;99.90
10722;DHT22;5412;59.450;18.124;2023-05-10T01:02:44;10.40;99.90
10722;DHT22;5412;59.450;18.124;2023-05-10T01:05:11;10.30;99.90
10722;DHT22;5412;59.450;18.124;2023-05-10T01:07:37;10.30;99.90
10722;DHT22;5412;59.450;18.124;2023-05-10T01:10:04;10.30;99.90
10722;DHT22;5412;59.450;18.124;2023-05-10T01:12:30;10.30;99.90
10722;DHT22;5412;59.450;18.124;2023-05-10T01:14:57;10.30;99.90
10722;DHT22;5412;59.450;18.124;2023-05-10T01:17:23;10.30;99.90
10722;DHT22;5412;59.450;18.124;2023-05-10T01:19:50;10.20;99.90
10722;DHT22;5412;59.450;18.124;2023-05-10T01:28:39;10.20;99.90
10722;DHT22;5412;59.450;18.124;2023-05-10T01:33:41;10.20;99.90
10722;DHT22;5412;59.450;18.124;2023-05-10T01:36:22;10.20;99.90
10722;DHT22;5412;59.450;18.124;2023-05-10T01:46:42;10.20;99.90
10722;DHT22;5412;59.450;18.124;2023-05-10T01:49:21;10.20;99.90
10722;DHT22;5412;59.450;18.124;2023-05-10T01:51:51;10.10;99.90
10722;DHT22;5412;59.450;18.124;2023-05-10T01:54:20;10.10;99.90
10722;DHT22;5412;59.450;18.124;2023-05-10T01:56:55;10.10;99.90
10722;DHT22;5412;59.450;18.124;2023-05-10T01:59:24;10.10;99.90
10722;DHT22;5412;59.450;18.124;2023-05-10T02:01:51;10.00;99.90
10722;DHT22;5412;59.450;18.124;2023-05-10T02:04:19;10.10;99.90
10722;DHT22;5412;59.450;18.124;2023-05-10T02:06:47;10.10;99.90
10722;DHT22;5412;59.450;18.124;2023-05-10T02:09:14;10.10;99.90
10722;DHT22;5412;59.450;18.124;2023-05-10T02:11:43;10.00;99.90
10722;DHT22;5412;59.450;18.124;2023-05-10T02:14:10;10.00;99.90
10722;DHT22;5412;59.450;18.124;2023-05-10T02:16:38;9.90;99.90
10722;DHT22;5412;59.450;18.124;2023-05-10T02:19:05;9.90;99.90
10722;DHT22;5412;59.450;18.124;2023-05-10T02:21:32;9.90;99.90
10722;DHT22;5412;59.450;18.124;2023-05-10T02:23:59;9.90;99.90
10722;DHT22;5412;59.450;18.124;2023-05-10T02:26:26;9.90;99.90
10722;DHT22;5412;59.450;18.124;2023-05-10T02:28:53;9.90;99.90
10722;DHT22;5412;59.450;18.124;2023-05-10T02:31:21;9.90;99.90
10722;DHT22;5412;59.450;18.124;2023-05-10T02:33:48;9.90;99.90
10722;DHT22;5412;59.450;18.124;2023-05-10T02:36:15;9.90;99.90
10722;DHT22;5412;59.450;18.124;2023-05-10T02:38:42;10.00;99.90
10722;DHT22;5412;59.450;18.124;2023-05-10T02:41:09;10.00;99.90
10722;DHT22;5412;59.450;18.124;2023-05-10T02:43:37;10.00;99.90
10722;DHT22;5412;59.450;18.124;2023-05-10T02:46:03;10.00;99.90
10722;DHT22;5412;59.450;18.124;2023-05-10T02:48:29;9.90;99.90
10722;DHT22;5412;59.450;18.124;2023-05-10T02:51:07;9.90;99.90
10722;DHT22;5412;59.450;18.124;2023-05-10T02:53:35;9.90;99.90
10722;DHT22;5412;59.450;18.124;2023-05-10T02:56:05;9.90;99.90
10722;DHT22;5412;59.450;18.124;2023-05-10T02:58:33;10.00;99.90
10722;DHT22;5412;59.450;18.124;2023-05-10T03:01:00;9.90;99.90
10722;DHT22;5412;59.450;18.124;2023-05-10T03:03:26;10.00;99.90
10722;DHT22;5412;59.450;18.124;2023-05-10T03:05:51;10.00;99.90
10722;DHT22;5412;59.450;18.124;2023-05-10T03:08:21;10.00;99.90
10722;DHT22;5412;59.450;18.124;2023-05-10T03:11:10;10.00;99.90
10722;DHT22;5412;59.450;18.124;2023-05-10T03:16:56;10.00;99.90
10722;DHT22;5412;59.450;18.124;2023-05-10T03:19:27;10.00;99.90
10722;DHT22;5412;59.450;18.124;2023-05-10T03:21:59;10.00;99.90
10722;DHT22;5412;59.450;18.124;2023-05-10T03:24:27;10.10;99.90
10722;DHT22;5412;59.450;18.124;2023-05-10T03:26:56;10.20;99.90
10722;DHT22;5412;59.450;18.124;2023-05-10T03:29:26;10.20;99.90
10722;DHT22;5412;59.450;18.124;2023-05-10T03:31:52;10.30;99.90
10722;DHT22;5412;59.450;18.124;2023-05-10T03:34:26;10.40;99.90
10722;DHT22;5412;59.450;18.124;2023-05-10T03:36:52;10.30;99.90
10722;DHT22;5412;59.450;18.124;2023-05-10T03:39:18;10.30;99.90
10722;DHT22;5412;59.450;18.124;2023-05-10T03:41:44;10.40;99.90
10722;DHT22;5412;59.450;18.124;2023-05-10T03:44:09;10.50;99.90
10722;DHT22;5412;59.450;18.124;2023-05-10T03:46:35;10.50;99.90
10722;DHT22;5412;59.450;18.124;2023-05-10T03:49:01;10.50;99.90
10722;DHT22;5412;59.450;18.124;2023-05-10T03:51:26;10.60;99.90
10722;DHT22;5412;59.450;18.124;2023-05-10T03:53:54;10.60;99.90
10722;DHT22;5412;59.450;18.124;2023-05-10T03:56:20;10.60;99.90
10722;DHT22;5412;59.450;18.124;2023-05-10T03:58:46;10.60;99.90
10722;DHT22;5412;59.450;18.124;2023-05-10T04:01:12;10.70;99.90
10722;DHT22;5412;59.450;18.124;2023-05-10T04:03:38;10.70;99.90
10722;DHT22;5412;59.450;18.124;2023-05-10T04:06:04;10.70;99.90
10722;DHT22;5412;59.450;18.124;2023-05-10T04:08:31;10.80;99.90
10722;DHT22;5412;59.450;18.124;2023-05-10T04:11:25;10.80;99.90
10722;DHT22;5412;59.450;18.124;2023-05-10T04:13:51;10.90;99.90
10722;DHT22;5412;59.450;18.124;2023-05-10T04:16:17;10.90;99.90
10722;DHT22;5412;59.450;18.124;2023-05-10T04:18:43;10.90;99.90
10722;DHT22;5412;59.450;18.124;2023-05-10T04:21:12;11.00;99.90
10722;DHT22;5412;59.450;18.124;2023-05-10T04:23:39;11.00;99.90
10722;DHT22;5412;59.450;18.124;2023-05-10T04:26:04;11.00;99.90
10722;DHT22;5412;59.450;18.124;2023-05-10T04:28:30;11.00;99.90
10722;DHT22;5412;59.450;18.124;2023-05-10T04:31:07;11.10;99.90
10722;DHT22;5412;59.450;18.124;2023-05-10T04:33:33;11.20;99.90
10722;DHT22;5412;59.450;18.124;2023-05-10T04:36:00;11.20;99.90
10722;DHT22;5412;59.450;18.124;2023-05-10T04:38:26;11.30;99.90
10722;DHT22;5412;59.450;18.124;2023-05-10T04:40:52;11.40;99.90
10722;DHT22;5412;59.450;18.124;2023-05-10T04:43:18;11.40;99.90
10722;DHT22;5412;59.450;18.124;2023-05-10T04:45:44;11.40;99.90
10722;DHT22;5412;59.450;18.124;2023-05-10T04:48:09;11.50;99.90
10722;DHT22;5412;59.450;18.124;2023-05-10T04:50:37;11.50;99.90
10722;DHT22;5412;59.450;18.124;2023-05-10T04:53:04;11.50;99.90
10722;DHT22;5412;59.450;18.124;2023-05-10T04:55:29;11.60;99.90
10722;DHT22;5412;59.450;18.124;2023-05-10T04:57:55;11.60;99.90
10722;DHT22;5412;59.450;18.124;2023-05-10T05:00:22;11.70;99.90
10722;DHT22;5412;59.450;18.124;2023-05-10T05:02:49;11.70;99.90
10722;DHT22;5412;59.450;18.124;2023-05-10T05:05:14;11.70;99.90
10722;DHT22;5412;59.450;18.124;2023-05-10T05:07:40;11.80;99.90
10722;DHT22;5412;59.450;18.124;2023-05-10T05:10:07;11.80;99.90
10722;DHT22;5412;59.450;18.124;2023-05-10T05:12:34;11.90;99.90
10722;DHT22;5412;59.450;18.124;2023-05-10T05:15:01;12.00;99.90
10722;DHT22;5412;59.450;18.124;2023-05-10T05:17:29;12.00;99.90
10722;DHT22;5412;59.450;18.124;2023-05-10T05:19:55;12.10;99.90
10722;DHT22;5412;59.450;18.124;2023-05-10T05:22:21;12.20;99.90
10722;DHT22;5412;59.450;18.124;2023-05-10T05:24:53;12.30;99.90
10722;DHT22;5412;59.450;18.124;2023-05-10T05:27:19;12.20;99.90
10722;DHT22;5412;59.450;18.124;2023-05-10T05:29:47;12.20;99.90
10722;DHT22;5412;59.450;18.124;2023-05-10T05:32:13;12.30;99.90
10722;DHT22;5412;59.450;18.124;2023-05-10T05:34:39;12.30;99.90
10722;DHT22;5412;59.450;18.124;2023-05-10T05:37:04;12.40;99.90
10722;DHT22;5412;59.450;18.124;2023-05-10T05:39:30;12.40;99.90
10722;DHT22;5412;59.450;18.124;2023-05-10T05:41:56;12.50;99.90
10722;DHT22;5412;59.450;18.124;2023-05-10T05:44:21;12.50;99.90
10722;DHT22;5412;59.450;18.124;2023-05-10T05:46:47;12.60;99.90
10722;DHT22;5412;59.450;18.124;2023-05-10T05:49:13;12.70;99.90
10722;DHT22;5412;59.450;18.124;2023-05-10T05:51:39;12.80;99.90
10722;DHT22;5412;59.450;18.124;2023-05-10T05:54:04;12.80;99.90
10722;DHT22;5412;59.450;18.124;2023-05-10T05:56:30;12.80;99.90
10722;DHT22;5412;59.450;18.124;2023-05-10T05:58:56;12.70;99.90
10722;DHT22;5412;59.450;18.124;2023-05-10T06:01:21;12.90;99.90
10722;DHT22;5412;59.450;18.124;2023-05-10T06:03:47;12.90;99.90
10722;DHT22;5412;59.450;18.124;2023-05-10T06:06:13;13.00;99.90
10722;DHT22;5412;59.450;18.124;2023-05-10T06:08:39;13.10;99.90
10722;DHT22;5412;59.450;18.124;2023-05-10T06:11:04;13.20;99.90
10722;DHT22;5412;59.450;18.124;2023-05-10T06:13:30;13.30;99.90
10722;DHT22;5412;59.450;18.124;2023-05-10T06:16:02;13.40;99.90
10722;DHT22;5412;59.450;18.124;2023-05-10T06:18:27;13.50;99.90
10722;DHT22;5412;59.450;18.124;2023-05-10T06:20:53;13.50;99.90
10722;DHT22;5412;59.450;18.124;2023-05-10T06:23:19;13.50;99.90
10722;DHT22;5412;59.450;18.124;2023-05-10T06:25:45;13.70;99.90
10722;DHT22;5412;59.450;18.124;2023-05-10T06:28:10;13.80;99.90
10722;DHT22;5412;59.450;18.124;2023-05-10T06:30:36;14.00;99.90
10722;DHT22;5412;59.450;18.124;2023-05-10T06:33:02;14.10;99.90
10722;DHT22;5412;59.450;18.124;2023-05-10T06:35:29;14.20;99.90
10722;DHT22;5412;59.450;18.124;2023-05-10T06:37:54;14.30;99.90
10722;DHT22;5412;59.450;18.124;2023-05-10T06:40:20;14.30;99.90
10722;DHT22;5412;59.450;18.124;2023-05-10T06:42:47;14.40;99.90
10722;DHT22;5412;59.450;18.124;2023-05-10T06:45:14;14.50;99.90
10722;DHT22;5412;59.450;18.124;2023-05-10T06:47:40;14.60;99.90
10722;DHT22;5412;59.450;18.124;2023-05-10T06:50:10;14.60;99.90
10722;DHT22;5412;59.450;18.124;2023-05-10T06:52:37;14.80;99.90
10722;DHT22;5412;59.450;18.124;2023-05-10T06:55:04;14.90;99.90
10722;DHT22;5412;59.450;18.124;2023-05-10T06:57:30;15.00;99.90
10722;DHT22;5412;59.450;18.124;2023-05-10T06:59:56;15.20;99.90
10722;DHT22;5412;59.450;18.124;2023-05-10T07:02:22;15.20;99.90
10722;DHT22;5412;59.450;18.124;2023-05-10T07:04:48;15.30;99.90
10722;DHT22;5412;59.450;18.124;2023-05-10T07:07:14;15.30;99.90
10722;DHT22;5412;59.450;18.124;2023-05-10T07:09:40;15.50;99.90
10722;DHT22;5412;59.450;18.124;2023-05-10T07:12:06;15.60;99.90
10722;DHT22;5412;59.450;18.124;2023-05-10T07:14:31;15.70;99.90
10722;DHT22;5412;59.450;18.124;2023-05-10T07:16:57;15.80;99.90
10722;DHT22;5412;59.450;18.124;2023-05-10T07:19:23;15.90;99.90
10722;DHT22;5412;59.450;18.124;2023-05-10T07:21:49;16.00;99.90
10722;DHT22;5412;59.450;18.124;2023-05-10T07:24:16;16.20;99.90
10722;DHT22;5412;59.450;18.124;2023-05-10T07:26:41;16.30;99.90
10722;DHT22;5412;59.450;18.124;2023-05-10T07:29:07;16.40;99.90
10722;DHT22;5412;59.450;18.124;2023-05-10T07:31:33;16.40;99.90
10722;DHT22;5412;59.450;18.124;2023-05-10T07:33:58;16.60;99.90
10722;DHT22;5412;59.450;18.124;2023-05-10T07:36:24;16.60;99.80
10722;DHT22;5412;59.450;18.124;2023-05-10T07:38:50;16.80;99.40
10722;DHT22;5412;59.450;18.124;2023-05-10T07:41:16;16.80;98.80
10722;DHT22;5412;59.450;18.124;2023-05-10T07:43:41;16.80;98.60
10722;DHT22;5412;59.450;18.124;2023-05-10T07:46:07;17.00;98.70
10722;DHT22;5412;59.450;18.124;2023-05-10T07:48:36;17.10;98.30
10722;DHT22;5412;59.450;18.124;2023-05-10T07:51:02;17.20;98.10
10722;DHT22;5412;59.450;18.124;2023-05-10T07:53:27;17.30;97.20
10722;DHT22;5412;59.450;18.124;2023-05-10T07:55:57;17.40;97.00
10722;DHT22;5412;59.450;18.124;2023-05-10T07:58:26;17.40;96.50
10722;DHT22;5412;59.450;18.124;2023-05-10T08:00:52;17.50;96.40
10722;DHT22;5412;59.450;18.124;2023-05-10T08:03:18;17.50;96.10
10722;DHT22;5412;59.450;18.124;2023-05-10T08:05:44;17.70;96.20
10722;DHT22;5412;59.450;18.124;2023-05-10T08:08:09;17.80;95.50
10722;DHT22;5412;59.450;18.124;2023-05-10T08:10:35;17.90;95.40
10722;DHT22;5412;59.450;18.124;2023-05-10T08:13:01;18.00;94.50
10722;DHT22;5412;59.450;18.124;2023-05-10T08:15:26;18.00;94.20
10722;DHT22;5412;59.450;18.124;2023-05-10T08:17:52;18.20;93.90
10722;DHT22;5412;59.450;18.124;2023-05-10T08:20:18;18.20;94.00
10722;DHT22;5412;59.450;18.124;2023-05-10T08:22:47;18.20;93.10
10722;DHT22;5412;59.450;18.124;2023-05-10T08:25:13;18.40;92.20
10722;DHT22;5412;59.450;18.124;2023-05-10T08:27:38;18.40;91.60
10722;DHT22;5412;59.450;18.124;2023-05-10T08:30:05;18.50;90.80
10722;DHT22;5412;59.450;18.124;2023-05-10T08:32:31;18.60;90.50
10722;DHT22;5412;59.450;18.124;2023-05-10T08:34:57;18.70;90.30
10722;DHT22;5412;59.450;18.124;2023-05-10T08:37:23;18.80;90.20
10722;DHT22;5412;59.450;18.124;2023-05-10T08:39:49;18.90;89.00
10722;DHT22;5412;59.450;18.124;2023-05-10T08:42:19;19.00;88.50
10722;DHT22;5412;59.450;18.124;2023-05-10T08:44:48;19.00;86.50
10722;DHT22;5412;59.450;18.124;2023-05-10T08:47:16;19.00;85.20
10722;DHT22;5412;59.450;18.124;2023-05-10T08:49:44;19.10;82.70
10722;DHT22;5412;59.450;18.124;2023-05-10T08:52:13;19.10;81.70
10722;DHT22;5412;59.450;18.124;2023-05-10T08:54:40;19.10;80.40
10722;DHT22;5412;59.450;18.124;2023-05-10T08:57:06;19.30;80.80
10722;DHT22;5412;59.450;18.124;2023-05-10T08:59:32;19.40;79.80
10722;DHT22;5412;59.450;18.124;2023-05-10T09:01:59;19.30;77.80
10722;DHT22;5412;59.450;18.124;2023-05-10T09:04:25;19.30;77.70
10722;DHT22;5412;59.450;18.124;2023-05-10T09:06:51;19.30;77.90
10722;DHT22;5412;59.450;18.124;2023-05-10T09:09:18;19.40;77.00
10722;DHT22;5412;59.450;18.124;2023-05-10T09:11:44;19.50;76.30
10722;DHT22;5412;59.450;18.124;2023-05-10T09:14:11;19.50;75.10
10722;DHT22;5412;59.450;18.124;2023-05-10T09:16:38;19.40;73.00
10722;DHT22;5412;59.450;18.124;2023-05-10T09:19:03;19.50;73.20
10722;DHT22;5412;59.450;18.124;2023-05-10T09:21:30;19.40;69.50
10722;DHT22;5412;59.450;18.124;2023-05-10T09:23:56;19.40;69.20
10722;DHT22;5412;59.450;18.124;2023-05-10T09:26:23;19.40;69.00
10722;DHT22;5412;59.450;18.124;2023-05-10T09:28:57;19.40;69.30
10722;DHT22;5412;59.450;18.124;2023-05-10T09:31:23;19.30;66.70
10722;DHT22;5412;59.450;18.124;2023-05-10T09:33:50;19.40;68.10
10722;DHT22;5412;59.450;18.124;2023-05-10T09:36:17;19.40;66.20
10722;DHT22;5412;59.450;18.124;2023-05-10T09:38:51;19.30;65.00
10722;DHT22;5412;59.450;18.124;2023-05-10T09:41:23;19.40;66.30
10722;DHT22;5412;59.450;18.124;2023-05-10T09:43:49;19.30;67.30
10722;DHT22;5412;59.450;18.124;2023-05-10T09:46:16;19.40;66.90
10722;DHT22;5412;59.450;18.124;2023-05-10T09:48:46;19.50;64.60
10722;DHT22;5412;59.450;18.124;2023-05-10T09:51:19;19.40;63.80
10722;DHT22;5412;59.450;18.124;2023-05-10T09:53:45;19.40;65.70
10722;DHT22;5412;59.450;18.124;2023-05-10T09:56:11;19.50;63.80
10722;DHT22;5412;59.450;18.124;2023-05-10T09:58:37;19.50;64.20
10722;DHT22;5412;59.450;18.124;2023-05-10T10:01:11;19.50;62.80
10722;DHT22;5412;59.450;18.124;2023-05-10T10:03:42;19.40;63.30
10722;DHT22;5412;59.450;18.124;2023-05-10T10:06:08;19.30;63.10
10722;DHT22;5412;59.450;18.124;2023-05-10T10:08:34;19.30;61.40
10722;DHT22;5412;59.450;18.124;2023-05-10T10:11:00;19.40;63.10
10722;DHT22;5412;59.450;18.124;2023-05-10T10:13:26;19.50;63.20
10722;DHT22;5412;59.450;18.124;2023-05-10T10:15:54;19.40;61.60
10722;DHT22;5412;59.450;18.124;2023-05-10T10:18:20;19.30;60.70
10722;DHT22;5412;59.450;18.124;2023-05-10T10:20:53;19.30;61.30
10722;DHT22;5412;59.450;18.124;2023-05-10T10:23:19;19.30;61.60
10722;DHT22;5412;59.450;18.124;2023-05-10T10:25:46;19.30;60.50
10722;DHT22;5412;59.450;18.124;2023-05-10T10:28:32;19.30;60.60
10722;DHT22;5412;59.450;18.124;2023-05-10T10:31:19;19.40;60.40
10722;DHT22;5412;59.450;18.124;2023-05-10T10:36:44;19.20;58.50
10722;DHT22;5412;59.450;18.124;2023-05-10T10:39:10;19.20;59.50
10722;DHT22;5412;59.450;18.124;2023-05-10T10:57:51;19.20;58.70
10722;DHT22;5412;59.450;18.124;2023-05-10T11:00:36;19.10;57.90
10722;DHT22;5412;59.450;18.124;2023-05-10T11:03:11;19.10;58.90
10722;DHT22;5412;59.450;18.124;2023-05-10T11:05:49;19.00;57.90
10722;DHT22;5412;59.450;18.124;2023-05-10T11:15:54;18.90;58.50
10722;DHT22;5412;59.450;18.124;2023-05-10T11:18:30;18.90;58.20
10722;DHT22;5412;59.450;18.124;2023-05-10T11:20:56;18.90;57.70
10722;DHT22;5412;59.450;18.124;2023-05-10T11:23:23;19.00;58.20
10722;DHT22;5412;59.450;18.124;2023-05-10T11:25:49;19.00;57.70
10722;DHT22;5412;59.450;18.124;2023-05-10T11:28:17;18.90;57.20
10722;DHT22;5412;59.450;18.124;2023-05-10T11:30:44;18.90;56.80
10722;DHT22;5412;59.450;18.124;2023-05-10T11:33:17;19.00;57.60
10722;DHT22;5412;59.450;18.124;2023-05-10T11:35:45;19.00;58.10
10722;DHT22;5412;59.450;18.124;2023-05-10T11:38:12;19.00;57.90
10722;DHT22;5412;59.450;18.124;2023-05-10T11:40:39;19.00;56.40
10722;DHT22;5412;59.450;18.124;2023-05-10T11:43:05;19.00;57.00
10722;DHT22;5412;59.450;18.124;2023-05-10T11:45:34;18.90;57.30
10722;DHT22;5412;59.450;18.124;2023-05-10T11:48:00;18.90;57.10
10722;DHT22;5412;59.450;18.124;2023-05-10T11:50:26;18.90;58.40
10722;DHT22;5412;59.450;18.124;2023-05-10T11:52:53;18.90;58.20
10722;DHT22;5412;59.450;18.124;2023-05-10T11:55:19;18.80;57.70
10722;DHT22;5412;59.450;18.124;2023-05-10T11:57:45;18.80;58.90
10722;DHT22;5412;59.450;18.124;2023-05-10T12:00:15;18.90;58.20
10722;DHT22;5412;59.450;18.124;2023-05-10T12:02:41;19.00;59.70
10722;DHT22;5412;59.450;18.124;2023-05-10T12:05:07;18.90;58.30
10722;DHT22;5412;59.450;18.124;2023-05-10T12:07:33;19.00;58.10
10722;DHT22;5412;59.450;18.124;2023-05-10T12:10:14;19.10;58.30
10722;DHT22;5412;59.450;18.124;2023-05-10T12:12:47;19.10;57.50
10722;DHT22;5412;59.450;18.124;2023-05-10T12:15:20;19.10;58.80
10722;DHT22;5412;59.450;18.124;2023-05-10T12:17:46;19.20;58.50
10722;DHT22;5412;59.450;18.124;2023-05-10T12:20:14;19.50;59.50
10722;DHT22;5412;59.450;18.124;2023-05-10T12:22:41;19.40;59.10
10722;DHT22;5412;59.450;18.124;2023-05-10T12:25:09;19.60;57.70
10722;DHT22;5412;59.450;18.124;2023-05-10T12:27:35;19.60;57.20
10722;DHT22;5412;59.450;18.124;2023-05-10T12:30:02;19.80;57.60
10722;DHT22;5412;59.450;18.124;2023-05-10T12:32:41;19.80;57.70
10722;DHT22;5412;59.450;18.124;2023-05-10T12:35:07;19.90;58.50
10722;DHT22;5412;59.450;18.124;2023-05-10T12:37:34;20.30;58.30
10722;DHT22;5412;59.450;18.124;2023-05-10T12:40:09;20.20;57.70
10722;DHT22;5412;59.450;18.124;2023-05-10T12:42:36;20.30;57.90
10722;DHT22;5412;59.450;18.124;2023-05-10T12:45:03;20.30;56.60
10722;DHT22;5412;59.450;18.124;2023-05-10T12:47:29;20.40;56.70
10722;DHT22;5412;59.450;18.124;2023-05-10T12:49:55;20.50;56.40
10722;DHT22;5412;59.450;18.124;2023-05-10T12:52:21;20.60;56.80
10722;DHT22;5412;59.450;18.124;2023-05-10T12:54:46;20.60;55.80
10722;DHT22;5412;59.450;18.124;2023-05-10T12:57:13;20.70;57.70
10722;DHT22;5412;59.450;18.124;2023-05-10T12:59:39;20.70;56.50
10722;DHT22;5412;59.450;18.124;2023-05-10T13:02:05;20.70;55.90
10722;DHT22;5412;59.450;18.124;2023-05-10T13:04:31;20.70;55.70
10722;DHT22;5412;59.450;18.124;2023-05-10T13:06:57;20.90;55.00
10722;DHT22;5412;59.450;18.124;2023-05-10T13:09:27;20.90;55.60
10722;DHT22;5412;59.450;18.124;2023-05-10T13:11:54;20.90;55.10
10722;DHT22;5412;59.450;18.124;2023-05-10T13:14:20;21.10;54.80
10722;DHT22;5412;59.450;18.124;2023-05-10T13:16:47;21.10;54.60
10722;DHT22;5412;59.450;18.124;2023-05-10T13:19:17;21.20;54.70
10722;DHT22;5412;59.450;18.124;2023-05-10T13:21:43;21.10;54.40
10722;DHT22;5412;59.450;18.124;2023-05-10T13:24:10;21.40;54.80
10722;DHT22;5412;59.450;18.124;2023-05-10T13:26:36;21.60;53.60
10722;DHT22;5412;59.450;18.124;2023-05-10T13:29:03;21.80;53.10
10722;DHT22;5412;59.450;18.124;2023-05-10T13:31:28;22.10;53.60
10722;DHT22;5412;59.450;18.124;2023-05-10T13:33:54;22.10;52.30
10722;DHT22;5412;59.450;18.124;2023-05-10T13:36:20;22.20;51.40
10722;DHT22;5412;59.450;18.124;2023-05-10T13:38:46;22.10;50.80
10722;DHT22;5412;59.450;18.124;2023-05-10T13:41:12;22.30;52.10
10722;DHT22;5412;59.450;18.124;2023-05-10T13:43:38;22.70;52.30
10722;DHT22;5412;59.450;18.124;2023-05-10T13:46:03;22.90;52.60
10722;DHT22;5412;59.450;18.124;2023-05-10T13:48:29;22.90;51.50
10722;DHT22;5412;59.450;18.124;2023-05-10T13:50:55;22.80;52.20
10722;DHT22;5412;59.450;18.124;2023-05-10T13:53:21;22.60;51.20
10722;DHT22;5412;59.450;18.124;2023-05-10T13:55:47;22.60;50.30
10722;DHT22;5412;59.450;18.124;2023-05-10T13:58:13;22.60;50.20
10722;DHT22;5412;59.450;18.124;2023-05-10T14:00:38;22.40;49.70
10722;DHT22;5412;59.450;18.124;2023-05-10T14:03:04;22.30;50.00
10722;DHT22;5412;59.450;18.124;2023-05-10T14:05:31;22.50;50.20
10722;DHT22;5412;59.450;18.124;2023-05-10T14:07:57;22.70;49.30
10722;DHT22;5412;59.450;18.124;2023-05-10T14:10:23;22.70;49.00
10722;DHT22;5412;59.450;18.124;2023-05-10T14:12:49;22.70;49.50
10722;DHT22;5412;59.450;18.124;2023-05-10T14:15:15;22.80;49.70
10722;DHT22;5412;59.450;18.124;2023-05-10T14:17:41;22.70;49.30
10722;DHT22;5412;59.450;18.124;2023-05-10T14:20:07;23.00;49.20
10722;DHT22;5412;59.450;18.124;2023-05-10T14:22:34;22.90;49.00
10722;DHT22;5412;59.450;18.124;2023-05-10T14:25:00;23.40;49.40
10722;DHT22;5412;59.450;18.124;2023-05-10T14:27:26;23.60;49.70
10722;DHT22;5412;59.450;18.124;2023-05-10T14:29:52;23.60;50.60
10722;DHT22;5412;59.450;18.124;2023-05-10T14:32:18;23.70;50.00
10722;DHT22;5412;59.450;18.124;2023-05-10T14:34:44;24.00;49.80
10722;DHT22;5412;59.450;18.124;2023-05-10T14:37:10;23.80;49.90
10722;DHT22;5412;59.450;18.124;2023-05-10T14:39:37;23.60;48.80
10722;DHT22;5412;59.450;18.124;2023-05-10T14:42:03;23.30;48.70
10722;DHT22;5412;59.450;18.124;2023-05-10T14:44:29;23.10;49.20
10722;DHT22;5412;59.450;18.124;2023-05-10T14:46:55;23.30;48.50
10722;DHT22;5412;59.450;18.124;2023-05-10T14:49:22;23.70;49.20
10722;DHT22;5412;59.450;18.124;2023-05-10T14:51:48;23.90;48.40
10722;DHT22;5412;59.450;18.124;2023-05-10T14:54:14;24.10;47.60
10722;DHT22;5412;59.450;18.124;2023-05-10T14:56:40;24.00;47.40
10722;DHT22;5412;59.450;18.124;2023-05-10T14:59:07;24.00;47.30
10722;DHT22;5412;59.450;18.124;2023-05-10T15:01:33;23.70;47.90
10722;DHT22;5412;59.450;18.124;2023-05-10T15:04:00;23.60;49.00
10722;DHT22;5412;59.450;18.124;2023-05-10T15:06:33;23.60;48.20
10722;DHT22;5412;59.450;18.124;2023-05-10T15:09:00;23.70;48.40
10722;DHT22;5412;59.450;18.124;2023-05-10T15:11:26;23.80;48.70
10722;DHT22;5412;59.450;18.124;2023-05-10T15:13:53;23.90;48.60
10722;DHT22;5412;59.450;18.124;2023-05-10T15:16:18;24.20;47.60
10722;DHT22;5412;59.450;18.124;2023-05-10T15:18:44;24.30;47.20
10722;DHT22;5412;59.450;18.124;2023-05-10T15:21:10;24.40;47.00
10722;DHT22;5412;59.450;18.124;2023-05-10T15:23:36;24.40;47.30
10722;DHT22;5412;59.450;18.124;2023-05-10T15:26:02;24.30;47.80
10722;DHT22;5412;59.450;18.124;2023-05-10T15:28:28;24.30;46.20
10722;DHT22;5412;59.450;18.124;2023-05-10T15:30:54;23.90;45.60
10722;DHT22;5412;59.450;18.124;2023-05-10T15:33:20;23.60;45.30
10722;DHT22;5412;59.450;18.124;2023-05-10T15:35:45;23.60;45.40
10722;DHT22;5412;59.450;18.124;2023-05-10T15:38:11;23.80;45.60
10722;DHT22;5412;59.450;18.124;2023-05-10T15:40:37;23.90;45.60
10722;DHT22;5412;59.450;18.124;2023-05-10T15:43:03;23.80;45.00
10722;DHT22;5412;59.450;18.124;2023-05-10T15:45:30;24.20;45.00
10722;DHT22;5412;59.450;18.124;2023-05-10T15:47:57;24.10;45.00
10722;DHT22;5412;59.450;18.124;2023-05-10T15:50:22;24.10;45.00
10722;DHT22;5412;59.450;18.124;2023-05-10T15:52:48;23.90;45.30
10722;DHT22;5412;59.450;18.124;2023-05-10T15:55:14;23.80;44.30
10722;DHT22;5412;59.450;18.124;2023-05-10T15:57:40;23.80;44.90
10722;DHT22;5412;59.450;18.124;2023-05-10T16:00:10;24.00;45.00
10722;DHT22;5412;59.450;18.124;2023-05-10T16:02:36;23.90;44.90
10722;DHT22;5412;59.450;18.124;2023-05-10T16:05:03;23.10;45.10
10722;DHT22;5412;59.450;18.124;2023-05-10T16:07:29;22.20;45.90
10722;DHT22;5412;59.450;18.124;2023-05-10T16:09:55;21.30;46.90
10722;DHT22;5412;59.450;18.124;2023-05-10T16:12:20;20.70;48.50
10722;DHT22;5412;59.450;18.124;2023-05-10T16:14:47;20.40;50.00
10722;DHT22;5412;59.450;18.124;2023-05-10T16:17:12;20.10;50.70
10722;DHT22;5412;59.450;18.124;2023-05-10T16:19:39;19.70;51.10